Time;durP1;ratioP1;P1;durP2;ratioP2;P2;SDS_P1;SDS_P2;PMS_P1;PMS_P2;Temp;Humidity;BMP_temperature;BMP_pressure;BME280_temperature;BME280_humidity;BME280_pressure;Samples;Min_cycle;Max_cycle;Signal;HPM_P1;HPM_P2
2022/10/11 00:01:53;;;;;;;3.83;1.70;;;;;;;7.14;84.18;100571.73;1679027;85;21614;-70
2022/10/11 00:04:19;;;;;;;4.20;2.37;;;;;;;7.13;84.17;100564.73;1693884;84;21527;-70
2022/10/11 00:06:46;;;;;;;2.62;2.42;;;;;;;7.13;84.24;100568.23;1667507;84;21142;-71
2022/10/11 00:09:13;;;;;;;2.22;2.12;;;;;;;7.12;84.21;100571.93;1692202;84;21217;-69
2022/10/11 00:11:40;;;;;;;2.10;1.62;;;;;;;7.10;84.40;100561.94;1680339;85;21013;-69
2022/10/11 00:14:07;;;;;;;5.42;1.90;;;;;;;7.11;84.31;100567.61;1680279;85;21576;-69
2022/10/11 00:16:34;;;;;;;5.90;2.10;;;;;;;7.11;84.33;100558.75;1680626;85;21333;-69
2022/10/11 00:19:01;;;;;;;5.55;1.90;;;;;;;7.10;84.61;100559.80;1706260;83;21049;-70
2022/10/11 00:21:29;;;;;;;5.70;2.08;;;;;;;7.09;84.53;100559.48;1685465;83;21135;-71
2022/10/11 00:23:56;;;;;;;5.08;1.57;;;;;;;7.09;84.57;100559.48;1682014;83;21016;-69
2022/10/11 00:26:22;;;;;;;2.77;1.92;;;;;;;7.05;84.64;100560.39;1680357;85;21005;-68
2022/10/11 00:28:51;;;;;;;2.92;1.65;;;;;;;7.04;84.73;100561.95;1679650;84;21074;-69
2022/10/11 00:31:18;;;;;;;4.22;1.62;;;;;;;7.00;84.92;100557.00;1679991;85;21557;-67
2022/10/11 00:33:44;;;;;;;3.85;1.75;;;;;;;6.98;85.21;100553.72;1680254;84;21772;-70
2022/10/11 00:36:13;;;;;;;6.00;1.75;;;;;;;6.97;85.62;100553.41;1680928;84;20995;-70
2022/10/11 00:38:40;;;;;;;1.70;1.60;;;;;;;6.97;86.04;100548.56;1687792;83;21103;-78
2022/10/11 00:41:06;;;;;;;1.75;1.62;;;;;;;6.96;86.52;100553.09;1680848;85;21128;-77
2022/10/11 00:43:33;;;;;;;1.87;1.57;;;;;;;6.94;86.93;100544.47;1695231;84;21547;-78
2022/10/11 00:46:12;;;;;;;2.30;2.10;;;;;;;6.93;86.94;100539.31;1684572;84;21126;-77
2022/10/11 00:48:43;;;;;;;1.77;1.67;;;;;;;6.92;86.97;100533.14;1652143;86;21058;-79
2022/10/11 00:51:18;;;;;;;1.95;1.75;;;;;;;6.92;86.99;100537.16;1675077;83;21044;-78
2022/10/11 00:53:44;;;;;;;2.00;1.90;;;;;;;6.87;87.12;100533.44;1673960;85;21611;-78
2022/10/11 00:56:32;;;;;;;5.37;2.50;;;;;;;6.87;87.07;100537.45;1679629;84;21478;-77
2022/10/11 00:59:03;;;;;;;2.15;1.95;;;;;;;6.85;86.91;100535.52;1679969;84;22282;-77
2022/10/11 01:01:31;;;;;;;2.40;2.20;;;;;;;6.83;86.82;100537.05;1680460;85;20988;-75
2022/10/11 01:03:57;;;;;;;1.92;1.80;;;;;;;6.82;86.78;100536.73;1675272;85;21109;-73
2022/10/11 01:06:25;;;;;;;2.77;2.22;;;;;;;6.81;86.73;100532.95;1673825;84;21044;-72
2022/10/11 01:08:53;;;;;;;2.15;2.02;;;;;;;6.81;86.69;100533.73;1679806;84;21131;-77
2022/10/11 01:11:22;;;;;;;4.50;2.25;;;;;;;6.84;86.54;100537.36;1674612;85;21321;-76
2022/10/11 01:14:34;;;;;;;5.17;2.10;;;;;;;6.85;86.25;100531.51;1674102;85;21015;-75
2022/10/11 01:17:40;;;;;;;5.37;1.92;;;;;;;6.82;85.96;100527.88;1675120;84;21005;-78
2022/10/11 01:20:44;;;;;;;2.35;1.72;;;;;;;6.81;85.76;100532.95;1675571;85;21108;-76
2022/10/11 01:23:31;;;;;;;3.05;1.55;;;;;;;6.79;85.67;100533.14;1675203;85;21141;-76
2022/10/11 01:26:26;;;;;;;2.00;1.90;;;;;;;6.78;85.59;100538.17;1674840;84;21790;-71
2022/10/11 01:29:25;;;;;;;2.95;2.08;;;;;;;6.76;85.59;100541.55;1674838;85;20943;-70
2022/10/11 01:32:12;;;;;;;2.40;2.17;;;;;;;6.74;85.57;100537.45;1677119;84;21119;-74
2022/10/11 01:34:50;;;;;;;2.65;1.90;;;;;;;6.70;85.60;100541.05;1667449;84;21040;-74
2022/10/11 01:37:33;;;;;;;2.45;1.80;;;;;;;6.66;85.67;100542.49;1662255;85;21624;-73
2022/10/11 01:40:15;;;;;;;2.15;1.95;;;;;;;6.58;85.80;100539.48;1650870;84;21788;-70
2022/10/11 01:42:41;;;;;;;3.20;2.08;;;;;;;6.50;85.97;100546.36;1678482;84;21016;-69
2022/10/11 01:45:12;;;;;;;2.87;2.10;;;;;;;6.44;86.30;100536.98;1700155;84;21082;-71
2022/10/11 01:47:38;;;;;;;4.30;2.90;;;;;;;6.39;86.64;100532.25;1675336;84;20996;-71
2022/10/11 01:50:26;;;;;;;3.60;2.45;;;;;;;6.36;86.98;100526.48;1675148;85;21057;-72
2022/10/11 01:52:53;;;;;;;4.17;2.42;;;;;;;6.34;87.24;100532.53;1662056;84;21342;-70
2022/10/11 01:55:40;;;;;;;3.02;2.58;;;;;;;6.30;87.44;100534.80;1675099;85;21029;-70
2022/10/11 01:58:33;;;;;;;4.22;2.17;;;;;;;6.26;87.65;100534.06;1677199;84;21084;-70
2022/10/11 02:01:11;;;;;;;2.80;2.50;;;;;;;6.22;87.83;100539.50;1681009;85;21066;-69
2022/10/11 02:03:48;;;;;;;2.10;1.90;;;;;;;6.16;88.05;100537.11;1679887;84;21124;-70
2022/10/11 02:06:49;;;;;;;2.40;2.12;;;;;;;6.13;88.41;100537.52;1662534;85;21301;-71
2022/10/11 02:09:31;;;;;;;2.27;2.00;;;;;;;6.10;88.61;100538.73;1680798;85;20984;-71
2022/10/11 02:12:02;;;;;;;4.08;2.12;;;;;;;6.10;88.63;100540.06;1680288;83;21004;-68
2022/10/11 02:14:32;;;;;;;3.37;2.27;;;;;;;6.06;88.60;100541.49;1653194;86;21632;-69
2022/10/11 02:17:06;;;;;;;5.47;2.95;;;;;;;6.00;88.74;100553.47;1653123;86;21044;-69
2022/10/11 02:19:46;;;;;;;2.72;2.52;;;;;;;5.93;88.99;100541.45;1653297;86;21139;-68
2022/10/11 02:22:18;;;;;;;3.50;2.45;;;;;;;5.85;89.25;100537.56;1701756;84;20937;-76
2022/10/11 02:24:48;;;;;;;3.72;2.00;;;;;;;5.80;89.59;100543.20;1679601;84;21082;-76
2022/10/11 02:27:14;;;;;;;4.87;2.60;;;;;;;5.82;90.05;100541.14;1680503;84;21687;-76
2022/10/11 02:29:41;;;;;;;3.55;2.05;;;;;;;5.85;90.20;100549.56;1681177;84;21056;-72
2022/10/11 02:32:08;;;;;;;4.08;2.30;;;;;;;5.84;90.21;100548.45;1679803;84;21078;-72
2022/10/11 02:34:42;;;;;;;3.10;2.30;;;;;;;5.80;90.30;100552.04;1680059;85;21046;-75
2022/10/11 02:37:28;;;;;;;6.67;2.35;;;;;;;5.77;90.47;100552.92;1680070;84;21270;-74
2022/10/11 02:40:20;;;;;;;4.50;2.52;;;;;;;5.71;90.72;100557.20;1679954;84;21647;-75
2022/10/11 02:42:58;;;;;;;3.72;2.27;;;;;;;5.64;91.10;100559.02;1652570;85;21098;-75
2022/10/11 02:45:29;;;;;;;6.45;2.10;;;;;;;5.59;91.51;100550.27;1679900;85;21175;-74
2022/10/11 02:47:56;;;;;;;6.85;2.35;;;;;;;5.55;91.97;100556.20;1679050;85;21137;-76
2022/10/11 02:50:22;;;;;;;4.25;2.25;;;;;;;5.54;92.35;100555.37;1695593;84;20975;-75
2022/10/11 02:52:51;;;;;;;8.13;2.08;;;;;;;5.56;92.68;100555.98;1686891;84;21039;-74
2022/10/11 02:55:18;;;;;;;6.78;2.17;;;;;;;5.56;92.92;100554.64;1653012;86;21116;-72
2022/10/11 02:57:44;;;;;;;5.28;1.90;;;;;;;5.55;93.11;100558.86;1635631;86;21203;-74
2022/10/11 03:00:13;;;;;;;3.50;2.05;;;;;;;5.54;93.28;100554.03;1635793;86;21064;-75
2022/10/11 03:02:39;;;;;;;2.00;1.80;;;;;;;5.51;93.36;100556.28;1671821;84;21007;-75
2022/10/11 03:05:07;;;;;;;6.33;2.90;;;;;;;5.46;93.67;100556.04;1680303;85;21067;-72
2022/10/11 03:07:33;;;;;;;9.60;2.55;;;;;;;5.42;93.94;100559.58;1631787;85;21075;-73
2022/10/11 03:10:03;;;;;;;4.45;2.15;;;;;;;5.40;94.22;100562.14;1675455;85;21017;-72
2022/10/11 03:12:31;;;;;;;3.00;2.20;;;;;;;5.37;94.56;100558.00;1674178;84;20990;-73
2022/10/11 03:14:58;;;;;;;3.50;2.42;;;;;;;5.36;94.92;100561.72;1674662;85;21587;-72
2022/10/11 03:17:26;;;;;;;3.37;3.05;;;;;;;5.33;95.16;100551.42;1674585;85;21137;-73
2022/10/11 03:19:54;;;;;;;2.90;2.47;;;;;;;5.33;95.38;100551.92;1675244;85;21000;-72
2022/10/11 03:22:21;;;;;;;4.60;2.33;;;;;;;5.33;95.50;100547.92;1673545;84;21372;-72
2022/10/11 03:24:47;;;;;;;4.42;2.22;;;;;;;5.33;95.46;100545.25;1674580;85;21038;-73
2022/10/11 03:27:14;;;;;;;4.72;2.35;;;;;;;5.30;95.39;100550.48;1674685;85;21021;-73
2022/10/11 03:29:41;;;;;;;2.52;2.33;;;;;;;5.28;95.36;100548.00;1674803;85;21021;-74
2022/10/11 03:32:07;;;;;;;4.83;2.25;;;;;;;5.28;95.41;100545.34;1673478;84;21526;-73
2022/10/11 03:34:35;;;;;;;3.52;2.35;;;;;;;5.31;95.39;100552.65;1674657;85;21045;-73
2022/10/11 03:37:02;;;;;;;2.77;2.58;;;;;;;5.32;95.33;100543.13;1674445;84;21030;-73
2022/10/11 03:39:29;;;;;;;2.53;2.33;;;;;;;5.36;95.11;100547.55;1674713;85;21073;-73
2022/10/11 03:41:56;;;;;;;4.67;2.52;;;;;;;5.36;94.73;100547.05;1674546;84;21038;-74
2022/10/11 03:44:22;;;;;;;2.37;2.17;;;;;;;5.34;94.44;100550.41;1674652;84;21614;-73
2022/10/11 03:46:49;;;;;;;2.05;1.95;;;;;;;5.33;94.14;100546.59;1674730;85;21065;-75
2022/10/11 03:49:16;;;;;;;2.72;2.10;;;;;;;5.33;93.95;100553.26;1674566;85;21067;-74
2022/10/11 03:51:42;;;;;;;2.62;1.87;;;;;;;5.33;93.78;100541.25;1675556;84;21579;-73
2022/10/11 03:54:08;;;;;;;4.17;1.80;;;;;;;5.37;93.72;100552.67;1674899;84;21566;-73
2022/10/11 03:56:35;;;;;;;3.65;1.60;;;;;;;5.44;93.60;100548.73;1675008;85;22357;-72
2022/10/11 03:59:02;;;;;;;2.05;1.80;;;;;;;5.49;93.81;100549.80;1674995;85;21621;-75
2022/10/11 04:01:29;;;;;;;3.47;1.70;;;;;;;5.55;94.05;100546.86;1640144;87;21065;-73
2022/10/11 04:03:56;;;;;;;1.92;1.82;;;;;;;5.56;94.55;100546.64;1645617;87;21107;-74
2022/10/11 04:06:23;;;;;;;3.92;2.10;;;;;;;5.59;94.61;100552.11;1632702;87;21006;-73
2022/10/11 04:08:49;;;;;;;2.05;1.72;;;;;;;5.63;95.08;100553.36;1645673;87;21039;-75
2022/10/11 04:11:16;;;;;;;1.60;1.50;;;;;;;5.69;95.44;100556.59;1646684;86;21633;-76
2022/10/11 04:13:42;;;;;;;3.90;1.90;;;;;;;5.77;95.52;100555.08;1644844;87;21080;-73
2022/10/11 04:16:09;;;;;;;2.02;1.82;;;;;;;5.82;95.66;100553.16;1644936;87;21116;-73
2022/10/11 04:18:37;;;;;;;3.92;2.25;;;;;;;5.87;96.14;100557.42;1645851;86;21599;-73
2022/10/11 04:21:04;;;;;;;4.92;2.08;;;;;;;5.91;96.71;100558.16;1647206;87;21112;-75
2022/10/11 04:23:31;;;;;;;5.15;2.35;;;;;;;5.95;97.29;100553.23;1679338;84;21152;-73
2022/10/11 04:25:58;;;;;;;4.15;2.67;;;;;;;6.00;97.59;100556.97;1703509;83;21123;-73
2022/10/11 04:28:25;;;;;;;3.65;2.45;;;;;;;6.02;98.00;100558.94;1694918;83;21007;-71
2022/10/11 04:30:53;;;;;;;12.45;2.47;;;;;;;6.07;98.62;100563.68;1673182;85;21023;-72
2022/10/11 04:33:20;;;;;;;3.98;2.12;;;;;;;6.13;99.08;100556.22;1662349;86;21097;-71
2022/10/11 04:35:48;;;;;;;3.27;2.33;;;;;;;6.17;99.30;100559.30;1671560;84;21109;-72
2022/10/11 04:38:15;;;;;;;4.33;2.35;;;;;;;6.18;99.15;100557.78;1645843;84;21048;-73
2022/10/11 04:40:41;;;;;;;4.55;2.12;;;;;;;6.17;99.24;100556.63;1692838;84;20976;-72
2022/10/11 04:43:09;;;;;;;4.75;2.12;;;;;;;6.17;99.29;100558.80;1703258;84;20974;-72
2022/10/11 04:45:36;;;;;;;2.92;2.05;;;;;;;6.19;99.63;100566.63;1703599;84;21534;-72
2022/10/11 04:48:03;;;;;;;2.83;2.62;;;;;;;6.19;99.73;100571.96;1700516;84;22326;-73
2022/10/11 04:50:30;;;;;;;2.55;2.30;;;;;;;6.20;99.77;100568.24;1662318;85;21541;-70
2022/10/11 04:52:57;;;;;;;4.47;2.60;;;;;;;6.22;99.81;100569.70;1671606;84;21689;-75
2022/10/11 04:55:23;;;;;;;4.03;1.95;;;;;;;6.23;99.82;100570.53;1661871;86;21048;-74
2022/10/11 04:57:50;;;;;;;6.70;2.80;;;;;;;6.24;99.79;100566.81;1672922;85;21012;-75
2022/10/11 05:00:18;;;;;;;4.90;2.30;;;;;;;6.20;99.62;100564.23;1665342;84;21155;-72
2022/10/11 05:02:46;;;;;;;2.95;2.33;;;;;;;6.16;99.62;100563.82;1647761;85;21247;-71
2022/10/11 05:05:16;;;;;;;3.22;2.37;;;;;;;6.11;99.49;100568.42;1643016;87;21040;-72
2022/10/11 05:07:43;;;;;;;3.30;2.37;;;;;;;6.09;99.38;100576.34;1650072;85;20994;-71
2022/10/11 05:10:09;;;;;;;2.85;2.50;;;;;;;6.07;99.34;100581.87;1669450;84;21061;-71
2022/10/11 05:12:36;;;;;;;3.58;2.62;;;;;;;6.07;99.28;100579.70;1670198;85;22355;-70
2022/10/11 05:15:05;;;;;;;4.70;3.22;;;;;;;6.09;99.29;100587.02;1669829;85;21034;-72
2022/10/11 05:17:33;;;;;;;7.40;3.10;;;;;;;6.09;99.42;100578.47;1643042;85;21125;-70
2022/10/11 05:20:00;;;;;;;6.20;3.12;;;;;;;6.10;99.58;100574.78;1667634;84;21059;-71
2022/10/11 05:22:26;;;;;;;7.25;3.65;;;;;;;6.11;99.81;100579.11;1667374;85;21559;-71
2022/10/11 05:24:52;;;;;;;8.85;4.37;;;;;;;6.11;100.00;100573.77;1670449;85;22265;-71
2022/10/11 05:27:19;;;;;;;3.30;3.00;;;;;;;6.11;100.00;100572.44;1670386;85;21545;-71
2022/10/11 05:29:46;;;;;;;3.12;2.80;;;;;;;6.12;100.00;100566.08;1669674;84;21588;-71
2022/10/11 05:32:13;;;;;;;4.00;2.90;;;;;;;6.16;100.00;100572.34;1670195;85;21077;-70
2022/10/11 05:34:40;;;;;;;2.77;2.58;;;;;;;6.19;100.00;100572.76;1669878;85;21015;-71
2022/10/11 05:37:06;;;;;;;4.00;3.20;;;;;;;6.26;100.00;100574.95;1675023;85;21232;-70
2022/10/11 05:39:33;;;;;;;4.37;3.20;;;;;;;6.32;100.00;100579.51;1701479;83;21055;-69
2022/10/11 05:42:00;;;;;;;5.67;2.70;;;;;;;6.39;100.00;100572.83;1680467;84;21621;-72
2022/10/11 05:44:27;;;;;;;4.30;2.80;;;;;;;6.43;100.00;100574.90;1675019;85;21563;-72
2022/10/11 05:46:53;;;;;;;3.10;2.87;;;;;;;6.46;100.00;100577.70;1675208;85;21710;-72
2022/10/11 05:49:20;;;;;;;6.05;3.17;;;;;;;6.50;100.00;100576.27;1674458;84;21604;-73
2022/10/11 05:51:46;;;;;;;3.33;2.80;;;;;;;6.54;100.00;100577.50;1675329;85;22262;-72
2022/10/11 05:54:13;;;;;;;6.92;3.25;;;;;;;6.59;100.00;100576.39;1675158;85;21651;-71
2022/10/11 05:56:39;;;;;;;3.42;3.05;;;;;;;6.66;100.00;100573.73;1674765;84;21098;-72
2022/10/11 05:59:05;;;;;;;7.08;3.10;;;;;;;6.75;100.00;100575.20;1667186;84;21050;-71
2022/10/11 06:01:32;;;;;;;4.92;3.77;;;;;;;6.81;100.00;100574.39;1668087;85;21262;-72
2022/10/11 06:04:00;;;;;;;3.50;3.20;;;;;;;6.88;100.00;100570.69;1669945;85;20976;-72
2022/10/11 06:06:27;;;;;;;7.55;3.08;;;;;;;6.98;100.00;100570.28;1669642;84;22385;-72
2022/10/11 06:08:53;;;;;;;3.08;2.77;;;;;;;7.05;100.00;100575.65;1709001;83;21611;-72
2022/10/11 06:11:24;;;;;;;7.47;3.55;;;;;;;7.09;100.00;100580.38;1622684;85;21548;-70
2022/10/11 06:13:53;;;;;;;6.45;3.75;;;;;;;7.13;100.00;100578.11;1662192;86;21200;-70
2022/10/11 06:16:21;;;;;;;4.28;2.87;;;;;;;7.17;100.00;100579.34;1654042;84;21004;-71
2022/10/11 06:18:54;;;;;;;5.08;3.25;;;;;;;7.24;100.00;100577.50;1653113;85;20970;-72
2022/10/11 06:21:21;;;;;;;6.85;3.00;;;;;;;7.30;100.00;100574.80;1680099;85;22337;-73
2022/10/11 06:23:49;;;;;;;2.67;2.47;;;;;;;7.40;100.00;100571.70;1680398;85;21563;-71
2022/10/11 06:26:16;;;;;;;4.20;2.80;;;;;;;7.50;100.00;100572.63;1674998;84;21143;-73
2022/10/11 06:28:43;;;;;;;4.25;2.75;;;;;;;7.58;100.00;100571.09;1674451;84;21067;-72
2022/10/11 06:31:10;;;;;;;3.17;2.85;;;;;;;7.63;100.00;100572.08;1668295;85;21053;-73
2022/10/11 06:33:38;;;;;;;4.78;3.90;;;;;;;7.67;100.00;100577.34;1670084;85;21033;-72
2022/10/11 06:36:13;;;;;;;11.05;3.60;;;;;;;7.71;100.00;100580.42;1670047;85;21584;-72
2022/10/11 06:38:40;;;;;;;8.85;3.52;;;;;;;7.75;99.76;100581.13;1666940;84;21179;-73
2022/10/11 06:41:23;;;;;;;3.77;3.27;;;;;;;7.80;99.23;100584.01;1667777;84;21238;-72
2022/10/11 06:43:50;;;;;;;6.15;3.85;;;;;;;7.87;98.96;100586.14;1662566;85;21030;-71
2022/10/11 06:46:23;;;;;;;5.85;4.08;;;;;;;7.97;98.49;100580.85;1670148;85;21049;-71
2022/10/11 06:48:50;;;;;;;5.62;3.70;;;;;;;8.08;97.94;100577.53;1670463;85;21069;-72
2022/10/11 06:51:19;;;;;;;5.03;2.80;;;;;;;8.14;97.30;100580.20;1669749;84;22280;-72
2022/10/11 06:53:55;;;;;;;3.20;2.90;;;;;;;8.22;96.66;100583.14;1668934;84;21003;-71
2022/10/11 06:56:22;;;;;;;10.08;3.02;;;;;;;8.26;95.65;100582.50;1669873;85;21114;-72
2022/10/11 06:58:50;;;;;;;6.10;3.08;;;;;;;8.26;94.17;100578.48;1670022;85;21114;-71
2022/10/11 07:01:18;;;;;;;3.58;2.58;;;;;;;8.33;93.85;100583.86;1667355;84;21002;-71
2022/10/11 07:03:45;;;;;;;3.20;2.40;;;;;;;8.38;93.31;100582.70;1677176;84;21847;-72
2022/10/11 07:06:17;;;;;;;2.60;2.40;;;;;;;8.46;92.66;100591.00;1674208;84;20988;-73
2022/10/11 07:08:45;;;;;;;3.10;2.77;;;;;;;8.55;92.29;100582.49;1671513;85;21123;-72
2022/10/11 07:11:17;;;;;;;3.90;2.75;;;;;;;8.66;91.11;100587.70;1649791;84;21051;-71
2022/10/11 07:13:50;;;;;;;2.15;1.80;;;;;;;8.74;90.45;100590.12;1673837;85;21192;-72
2022/10/11 07:16:17;;;;;;;5.80;2.33;;;;;;;8.78;88.11;100587.84;1669806;85;21156;-72
2022/10/11 07:18:45;;;;;;;1.98;1.77;;;;;;;8.81;87.76;100588.23;1669716;85;20983;-71
2022/10/11 07:21:14;;;;;;;3.98;2.20;;;;;;;8.83;87.11;100583.97;1659942;84;21100;-72
2022/10/11 07:23:41;;;;;;;3.15;2.27;;;;;;;8.90;86.74;100578.05;1696594;83;21059;-72
2022/10/11 07:26:09;;;;;;;2.52;2.00;;;;;;;8.96;86.15;100584.73;1698432;83;21064;-75
2022/10/11 07:28:36;;;;;;;5.87;2.52;;;;;;;9.04;85.84;100578.26;1675273;84;21149;-76
2022/10/11 07:31:08;;;;;;;9.00;3.15;;;;;;;9.15;85.53;100583.76;1683510;85;21294;-74
2022/10/11 07:33:34;;;;;;;3.98;2.12;;;;;;;9.25;83.15;100582.44;1677321;83;20993;-74
2022/10/11 07:36:00;;;;;;;5.03;2.30;;;;;;;9.32;82.84;100584.02;1701328;84;21039;-74
2022/10/11 07:38:27;;;;;;;2.98;2.40;;;;;;;9.38;82.03;100580.98;1681014;84;21113;-73
2022/10/11 07:40:53;;;;;;;5.12;2.27;;;;;;;9.45;81.68;100575.84;1669965;85;21281;-71
2022/10/11 07:43:20;;;;;;;5.37;2.08;;;;;;;9.53;80.96;100570.72;1670200;84;20985;-73
2022/10/11 07:45:50;;;;;;;1.92;1.60;;;;;;;9.58;79.95;100566.34;1668233;84;21095;-75
2022/10/11 07:48:17;;;;;;;2.12;1.70;;;;;;;9.64;79.38;100563.25;1614228;86;21176;-74
2022/10/11 07:50:44;;;;;;;4.83;2.17;;;;;;;9.71;78.51;100559.99;1660899;84;172060;-75
2022/10/11 07:53:11;;;;;;;2.08;1.87;;;;;;;9.79;77.29;100558.86;1704073;84;21913;-72
2022/10/11 07:55:41;;;;;;;1.72;1.62;;;;;;;9.85;77.02;100557.46;1676576;84;21036;-73
2022/10/11 07:58:11;;;;;;;2.42;1.52;;;;;;;9.93;75.74;100558.50;1675027;85;21120;-72
2022/10/11 08:00:41;;;;;;;1.90;1.70;;;;;;;10.01;75.22;100560.08;1660994;84;21077;-72
2022/10/11 08:03:07;;;;;;;2.40;1.87;;;;;;;10.07;73.66;100556.50;1658531;85;21126;-72
2022/10/11 08:05:34;;;;;;;2.67;1.55;;;;;;;10.13;73.42;100554.23;1647281;85;21499;-74
2022/10/11 08:08:00;;;;;;;2.37;1.77;;;;;;;10.19;71.68;100562.78;1620189;86;21134;-73
2022/10/11 08:10:27;;;;;;;1.60;1.50;;;;;;;10.24;70.28;100552.17;1675776;84;21087;-75
2022/10/11 08:12:53;;;;;;;2.83;2.40;;;;;;;10.30;69.96;100565.23;1673025;85;21048;-71
2022/10/11 08:15:21;;;;;;;1.57;1.47;;;;;;;10.36;69.76;100554.38;1668155;85;21113;-72
2022/10/11 08:17:49;;;;;;;3.45;1.40;;;;;;;10.43;68.81;100555.13;1687003;84;21277;-72
2022/10/11 08:20:16;;;;;;;4.15;2.20;;;;;;;10.49;67.83;100552.88;1675393;85;21044;-73
2022/10/11 08:22:42;;;;;;;3.00;1.80;;;;;;;10.58;67.47;100552.02;1670196;84;22334;-71
2022/10/11 08:25:09;;;;;;;20.62;16.35;;;;;;;10.63;66.95;100551.33;1667529;84;21560;-73
2022/10/11 08:27:35;;;;;;;5.35;4.47;;;;;;;10.68;67.19;100545.56;1680487;85;21667;-72
2022/10/11 08:30:03;;;;;;;5.62;3.35;;;;;;;10.73;66.78;100547.56;1671769;85;21596;-72
2022/10/11 08:32:31;;;;;;;3.08;1.90;;;;;;;10.78;65.05;100547.17;1670154;85;21083;-72
2022/10/11 08:34:57;;;;;;;4.75;2.08;;;;;;;10.84;64.65;100542.72;1668571;84;20971;-72
2022/10/11 08:37:24;;;;;;;2.12;2.02;;;;;;;10.90;63.21;100546.66;1662806;84;21072;-78
2022/10/11 08:39:52;;;;;;;1.47;1.30;;;;;;;10.94;62.65;100542.45;1665827;85;21417;-74
2022/10/11 08:42:31;;;;;;;1.35;1.25;;;;;;;11.00;61.70;100546.63;1670178;85;21252;-74
2022/10/11 08:45:05;;;;;;;1.32;1.22;;;;;;;11.03;60.99;100540.24;1669883;85;21237;-76
2022/10/11 08:47:40;;;;;;;2.33;1.35;;;;;;;11.06;60.74;100546.53;1668902;85;21048;-73
2022/10/11 08:50:09;;;;;;;1.87;1.45;;;;;;;11.11;60.18;100539.09;1669545;85;21071;-71
2022/10/11 08:52:56;;;;;;;3.00;1.37;;;;;;;11.13;60.01;100535.63;1670226;85;21132;-70
2022/10/11 08:55:40;;;;;;;3.75;1.32;;;;;;;11.19;60.20;100530.67;1656712;84;21386;-75
2022/10/11 08:58:07;;;;;;;1.85;1.55;;;;;;;11.28;59.17;100527.39;1641785;87;21005;-72
2022/10/11 09:00:34;;;;;;;1.55;1.15;;;;;;;11.35;59.11;100525.95;1622740;85;21181;-84
2022/10/11 09:03:22;;;;;;;2.27;1.10;;;;;;;11.40;58.85;100523.37;1656778;86;21112;-85
2022/10/11 09:06:15;;;;;;;2.83;1.52;;;;;;;11.47;58.65;100523.23;1660401;85;21140;-77
2022/10/11 09:09:11;;;;;;;1.47;1.27;;;;;;;11.50;57.87;100528.17;1659335;85;21080;-77
2022/10/11 09:12:07;;;;;;;4.00;1.50;;;;;;;11.56;57.17;100523.98;1670735;84;21039;-79
2022/10/11 09:15:02;;;;;;;2.15;1.62;;;;;;;11.65;57.10;100522.59;1670688;85;21091;-82
2022/10/11 09:17:59;;;;;;;1.65;1.55;;;;;;;11.77;57.69;100523.94;1673169;85;21112;-79
2022/10/11 09:20:46;;;;;;;2.65;2.30;;;;;;;11.85;57.20;100526.78;1679593;84;21047;-81
2022/10/11 09:23:46;;;;;;;4.78;3.80;;;;;;;11.84;56.58;100521.95;1645932;87;21893;-73
2022/10/11 09:26:43;;;;;;;1.92;1.80;;;;;;;11.87;56.38;100516.07;1618070;88;20963;-77
2022/10/11 09:29:44;;;;;;;4.40;1.92;;;;;;;11.95;56.49;100513.00;1620818;85;21141;-73
2022/10/11 09:32:19;;;;;;;2.55;2.35;;;;;;;12.08;57.27;100513.27;1623622;88;20975;-78
2022/10/11 09:34:54;;;;;;;2.87;1.95;;;;;;;12.20;57.44;100504.07;1623436;88;21320;-73
2022/10/11 09:37:50;;;;;;;2.80;2.05;;;;;;;12.31;58.06;100501.56;1622074;86;21127;-70
2022/10/11 09:40:51;;;;;;;2.25;2.10;;;;;;;12.39;58.19;100505.22;1617752;86;21040;-72
2022/10/11 09:43:17;;;;;;;2.20;1.98;;;;;;;12.49;57.44;100517.02;1608484;88;21389;-75
2022/10/11 09:45:45;;;;;;;2.92;2.30;;;;;;;12.58;56.27;100510.17;1643420;87;21590;-73
2022/10/11 09:48:22;;;;;;;6.22;4.10;;;;;;;12.65;55.85;100503.28;1650485;85;21058;-72
2022/10/11 09:50:49;;;;;;;8.70;7.17;;;;;;;12.70;54.83;100499.32;1641993;87;21583;-71
2022/10/11 09:53:16;;;;;;;7.00;5.65;;;;;;;12.74;54.05;100500.99;1643095;87;21640;-72
2022/10/11 09:55:53;;;;;;;3.50;3.02;;;;;;;12.80;53.11;100499.49;1641818;85;21001;-72
2022/10/11 09:58:31;;;;;;;3.27;2.70;;;;;;;12.89;53.73;100497.20;1641762;85;21026;-72
2022/10/11 10:01:02;;;;;;;3.95;2.30;;;;;;;12.99;54.14;100494.14;1644633;85;21081;-70
2022/10/11 10:03:31;;;;;;;1.98;1.70;;;;;;;13.04;54.13;100488.00;1643391;85;21320;-70
2022/10/11 10:06:18;;;;;;;5.70;1.87;;;;;;;13.14;53.79;100490.86;1643853;85;21077;-73
2022/10/11 10:08:46;;;;;;;6.92;2.05;;;;;;;13.26;52.52;100486.20;1642991;85;20974;-69
2022/10/11 10:11:13;;;;;;;1.85;1.62;;;;;;;13.35;51.77;100491.46;1644889;85;20990;-70
2022/10/11 10:13:54;;;;;;;7.12;1.82;;;;;;;13.45;52.12;100488.09;1642996;85;21105;-69
2022/10/11 10:16:31;;;;;;;2.10;2.00;;;;;;;13.53;51.32;100487.12;1629876;87;21139;-68
2022/10/11 10:19:04;;;;;;;6.37;1.70;;;;;;;13.59;51.23;100489.89;1643201;87;21106;-72
2022/10/11 10:21:40;;;;;;;1.62;1.52;;;;;;;13.62;50.29;100483.44;1643364;87;21025;-69
2022/10/11 10:24:33;;;;;;;1.72;1.62;;;;;;;13.67;50.49;100475.41;1656824;86;21119;-68
2022/10/11 10:27:22;;;;;;;3.33;1.95;;;;;;;13.78;50.64;100480.41;1643340;85;21085;-69
2022/10/11 10:30:15;;;;;;;2.20;1.80;;;;;;;13.91;51.24;100478.14;1643377;85;21093;-71
2022/10/11 10:32:55;;;;;;;2.90;2.52;;;;;;;14.03;51.46;100469.08;1653749;85;22297;-69
2022/10/11 10:35:45;;;;;;;3.50;2.33;;;;;;;14.13;50.88;100466.49;1650208;85;21022;-70
2022/10/11 10:38:26;;;;;;;2.08;1.67;;;;;;;14.22;50.22;100475.79;1631100;86;21168;-69
2022/10/11 10:40:57;;;;;;;3.02;1.67;;;;;;;14.28;49.81;100476.95;1643423;85;20994;-73
2022/10/11 10:43:28;;;;;;;1.50;1.40;;;;;;;14.33;49.66;100469.42;1643379;87;21161;-75
2022/10/11 10:46:30;;;;;;;2.10;1.90;;;;;;;14.38;49.32;100464.91;1652485;86;21227;-78
2022/10/11 10:49:15;;;;;;;10.78;1.45;;;;;;;14.46;48.39;100462.80;1642376;85;21030;-73
2022/10/11 10:52:02;;;;;;;1.12;1.10;;;;;;;14.56;46.05;100467.78;1617299;88;21022;-79
2022/10/11 10:54:39;;;;;;;2.25;1.32;;;;;;;14.61;46.71;100468.36;1622809;85;21598;-77
2022/10/11 10:57:17;;;;;;;1.50;1.40;;;;;;;14.67;47.00;100455.16;1628918;87;21232;-76
2022/10/11 10:59:55;;;;;;;3.37;1.32;;;;;;;14.67;47.25;100454.63;1643184;87;20990;-78
2022/10/11 11:02:45;;;;;;;2.85;1.92;;;;;;;14.74;47.58;100461.16;1642787;85;21029;-75
2022/10/11 11:05:58;;;;;;;2.55;1.32;;;;;;;14.82;47.55;100460.67;1643296;85;22043;-75
2022/10/11 11:08:38;;;;;;;1.42;1.20;;;;;;;14.91;47.47;100446.13;1643817;85;21014;-71
2022/10/11 11:11:51;;;;;;;1.52;1.42;;;;;;;14.93;47.30;100458.86;1643163;87;21231;-72
2022/10/11 11:14:39;;;;;;;1.30;1.20;;;;;;;15.00;47.17;100437.80;1638322;87;21060;-69
2022/10/11 11:17:26;;;;;;;2.22;1.40;;;;;;;15.10;46.88;100437.33;1638006;87;21664;-69
2022/10/11 11:20:41;;;;;;;1.22;1.15;;;;;;;15.16;46.62;100438.16;1651088;85;21545;-68
2022/10/11 11:23:22;;;;;;;1.30;1.20;;;;;;;15.15;46.28;100432.48;1666504;85;21069;-73
2022/10/11 11:26:09;;;;;;;3.20;1.42;;;;;;;15.19;46.25;100428.17;1670980;85;21525;-75
2022/10/11 11:29:02;;;;;;;1.52;1.40;;;;;;;15.33;46.05;100430.69;1667733;85;21025;-72
2022/10/11 11:31:46;;;;;;;1.70;1.20;;;;;;;15.42;45.00;100429.64;1662091;86;21024;-73
2022/10/11 11:34:24;;;;;;;3.65;1.12;;;;;;;15.50;44.16;100432.66;1661996;86;21045;-84
2022/10/11 11:37:01;;;;;;;1.15;1.05;;;;;;;15.53;43.59;100425.41;1662554;86;22006;-74
2022/10/11 11:39:35;;;;;;;1.20;1.10;;;;;;;15.58;42.54;100426.78;1661899;85;21181;-73
2022/10/11 11:42:18;;;;;;;2.17;1.12;;;;;;;15.65;41.96;100421.92;1659521;85;21068;-75
2022/10/11 11:44:46;;;;;;;;;;;;;;;15.70;41.76;100425.19;1638923;86;21071;-72
2022/10/11 11:47:32;;;;;;;0.80;0.80;;;;;;;15.69;41.30;100422.19;1639622;86;20513;-80
2022/10/11 11:50:25;;;;;;;1.10;1.00;;;;;;;15.74;41.11;100417.33;1661526;85;21064;-81
2022/10/11 11:52:59;;;;;;;2.87;2.22;;;;;;;15.68;40.21;100416.52;1653390;85;20966;-78
2022/10/11 11:55:40;;;;;;;1.65;1.55;;;;;;;15.70;38.50;100409.73;1649885;86;21017;-82
2022/10/11 11:58:24;;;;;;;1.15;0.90;;;;;;;15.74;36.53;100411.91;1649742;86;21101;-79